sensor_id;sensor_type;location;lat;lon;timestamp;temperature;humidity
19646;DHT22;9971;52.446;13.452;2024-01-10T00:04:48;19.10;99.90
19646;DHT22;9971;52.446;13.452;2024-01-10T00:09:50;19.10;99.90
19646;DHT22;9971;52.446;13.452;2024-01-10T00:14:52;19.10;99.90
19646;DHT22;9971;52.446;13.452;2024-01-10T00:19:55;19.10;99.90
19646;DHT22;9971;52.446;13.452;2024-01-10T00:24:57;19.10;99.90
19646;DHT22;9971;52.446;13.452;2024-01-10T00:30:00;19.10;99.90
19646;DHT22;9971;52.446;13.452;2024-01-10T00:35:02;19.10;99.90
19646;DHT22;9971;52.446;13.452;2024-01-10T00:40:06;19.00;99.90
19646;DHT22;9971;52.446;13.452;2024-01-10T00:45:08;19.10;99.90
19646;DHT22;9971;52.446;13.452;2024-01-10T00:50:10;19.10;99.90
19646;DHT22;9971;52.446;13.452;2024-01-10T00:55:13;19.00;99.90
19646;DHT22;9971;52.446;13.452;2024-01-10T01:00:15;19.00;99.90
19646;DHT22;9971;52.446;13.452;2024-01-10T01:05:18;19.00;99.90
19646;DHT22;9971;52.446;13.452;2024-01-10T01:10:20;19.00;99.90
19646;DHT22;9971;52.446;13.452;2024-01-10T01:15:35;19.10;99.90
19646;DHT22;9971;52.446;13.452;2024-01-10T01:20:38;19.10;99.90
19646;DHT22;9971;52.446;13.452;2024-01-10T01:25:40;19.00;99.90
19646;DHT22;9971;52.446;13.452;2024-01-10T01:30:43;19.10;99.90
19646;DHT22;9971;52.446;13.452;2024-01-10T01:35:45;19.00;99.90
19646;DHT22;9971;52.446;13.452;2024-01-10T01:40:48;19.00;99.90
19646;DHT22;9971;52.446;13.452;2024-01-10T01:45:52;19.00;99.90
19646;DHT22;9971;52.446;13.452;2024-01-10T01:50:56;19.00;99.90
19646;DHT22;9971;52.446;13.452;2024-01-10T01:55:56;19.00;99.90
19646;DHT22;9971;52.446;13.452;2024-01-10T02:00:58;19.00;99.90
19646;DHT22;9971;52.446;13.452;2024-01-10T02:06:00;19.00;99.90
19646;DHT22;9971;52.446;13.452;2024-01-10T02:11:02;19.00;99.90
19646;DHT22;9971;52.446;13.452;2024-01-10T02:16:04;19.00;99.90
19646;DHT22;9971;52.446;13.452;2024-01-10T02:21:07;19.00;99.90
19646;DHT22;9971;52.446;13.452;2024-01-10T02:26:09;19.00;99.90
19646;DHT22;9971;52.446;13.452;2024-01-10T02:31:12;19.00;99.90
19646;DHT22;9971;52.446;13.452;2024-01-10T02:36:14;19.00;99.90
19646;DHT22;9971;52.446;13.452;2024-01-10T02:41:17;19.00;99.90
19646;DHT22;9971;52.446;13.452;2024-01-10T02:46:19;19.00;99.90
19646;DHT22;9971;52.446;13.452;2024-01-10T02:51:21;19.00;99.90
19646;DHT22;9971;52.446;13.452;2024-01-10T02:56:23;19.00;99.90
19646;DHT22;9971;52.446;13.452;2024-01-10T03:01:25;19.00;99.90
19646;DHT22;9971;52.446;13.452;2024-01-10T03:06:28;19.00;99.90
19646;DHT22;9971;52.446;13.452;2024-01-10T03:11:30;19.00;99.90
19646;DHT22;9971;52.446;13.452;2024-01-10T03:16:32;19.00;99.90
19646;DHT22;9971;52.446;13.452;2024-01-10T03:21:35;18.90;99.90
19646;DHT22;9971;52.446;13.452;2024-01-10T03:26:37;18.90;99.90
19646;DHT22;9971;52.446;13.452;2024-01-10T03:31:40;19.00;99.90
19646;DHT22;9971;52.446;13.452;2024-01-10T03:36:42;18.90;99.90
19646;DHT22;9971;52.446;13.452;2024-01-10T03:41:45;19.00;99.90
19646;DHT22;9971;52.446;13.452;2024-01-10T03:46:47;18.90;99.90
19646;DHT22;9971;52.446;13.452;2024-01-10T03:51:49;18.90;99.90
19646;DHT22;9971;52.446;13.452;2024-01-10T03:56:52;18.90;99.90
19646;DHT22;9971;52.446;13.452;2024-01-10T04:01:55;18.90;99.90
19646;DHT22;9971;52.446;13.452;2024-01-10T04:06:57;18.90;99.90
19646;DHT22;9971;52.446;13.452;2024-01-10T04:12:00;18.90;99.90
19646;DHT22;9971;52.446;13.452;2024-01-10T04:17:03;18.90;99.90
19646;DHT22;9971;52.446;13.452;2024-01-10T04:22:05;18.90;99.90
19646;DHT22;9971;52.446;13.452;2024-01-10T04:27:08;18.90;99.90
19646;DHT22;9971;52.446;13.452;2024-01-10T04:32:10;18.90;99.90
19646;DHT22;9971;52.446;13.452;2024-01-10T04:37:12;18.90;99.90
19646;DHT22;9971;52.446;13.452;2024-01-10T04:42:14;18.90;99.90
19646;DHT22;9971;52.446;13.452;2024-01-10T04:47:17;18.90;99.90
19646;DHT22;9971;52.446;13.452;2024-01-10T04:52:19;18.90;99.90
19646;DHT22;9971;52.446;13.452;2024-01-10T04:57:22;18.90;99.90
19646;DHT22;9971;52.446;13.452;2024-01-10T05:02:24;18.90;99.90
19646;DHT22;9971;52.446;13.452;2024-01-10T05:07:26;18.90;99.90
19646;DHT22;9971;52.446;13.452;2024-01-10T05:12:29;18.80;99.90
19646;DHT22;9971;52.446;13.452;2024-01-10T05:17:31;18.80;99.90
19646;DHT22;9971;52.446;13.452;2024-01-10T05:22:34;18.80;99.90
19646;DHT22;9971;52.446;13.452;2024-01-10T05:27:36;18.80;99.90
19646;DHT22;9971;52.446;13.452;2024-01-10T05:32:38;18.80;99.90
19646;DHT22;9971;52.446;13.452;2024-01-10T05:37:41;18.80;99.90
19646;DHT22;9971;52.446;13.452;2024-01-10T05:42:44;18.90;99.90
19646;DHT22;9971;52.446;13.452;2024-01-10T05:47:46;18.90;99.90
19646;DHT22;9971;52.446;13.452;2024-01-10T05:52:48;18.90;99.90
19646;DHT22;9971;52.446;13.452;2024-01-10T05:57:50;18.90;99.70
19646;DHT22;9971;52.446;13.452;2024-01-10T06:02:52;18.90;99.80
19646;DHT22;9971;52.446;13.452;2024-01-10T06:07:55;18.90;99.40
19646;DHT22;9971;52.446;13.452;2024-01-10T06:12:57;18.90;99.50
19646;DHT22;9971;52.446;13.452;2024-01-10T06:18:00;19.00;99.10
19646;DHT22;9971;52.446;13.452;2024-01-10T06:23:02;19.00;98.40
19646;DHT22;9971;52.446;13.452;2024-01-10T06:28:05;18.90;97.90
19646;DHT22;9971;52.446;13.452;2024-01-10T06:33:07;19.00;98.10
19646;DHT22;9971;52.446;13.452;2024-01-10T06:38:10;19.00;98.20
19646;DHT22;9971;52.446;13.452;2024-01-10T06:43:12;19.00;98.10
19646;DHT22;9971;52.446;13.452;2024-01-10T06:48:14;19.00;98.60
19646;DHT22;9971;52.446;13.452;2024-01-10T06:53:17;19.00;98.50
19646;DHT22;9971;52.446;13.452;2024-01-10T06:58:19;19.00;98.60
19646;DHT22;9971;52.446;13.452;2024-01-10T07:03:22;19.00;98.50
19646;DHT22;9971;52.446;13.452;2024-01-10T07:08:25;19.00;98.40
19646;DHT22;9971;52.446;13.452;2024-01-10T07:13:26;19.00;98.40
19646;DHT22;9971;52.446;13.452;2024-01-10T07:18:29;19.00;98.50
19646;DHT22;9971;52.446;13.452;2024-01-10T07:23:31;19.00;98.30
19646;DHT22;9971;52.446;13.452;2024-01-10T07:28:33;19.00;98.30
19646;DHT22;9971;52.446;13.452;2024-01-10T07:33:36;19.00;98.30
19646;DHT22;9971;52.446;13.452;2024-01-10T07:38:38;19.00;97.60
19646;DHT22;9971;52.446;13.452;2024-01-10T07:43:41;19.00;98.30
19646;DHT22;9971;52.446;13.452;2024-01-10T07:48:43;19.00;97.90
19646;DHT22;9971;52.446;13.452;2024-01-10T07:53:46;19.00;98.10
19646;DHT22;9971;52.446;13.452;2024-01-10T07:58:48;19.00;97.70
19646;DHT22;9971;52.446;13.452;2024-01-10T08:03:51;19.00;97.40
19646;DHT22;9971;52.446;13.452;2024-01-10T08:08:53;19.00;97.60
19646;DHT22;9971;52.446;13.452;2024-01-10T08:13:56;19.00;97.50
19646;DHT22;9971;52.446;13.452;2024-01-10T08:18:58;19.00;96.90
19646;DHT22;9971;52.446;13.452;2024-01-10T08:24:01;19.00;96.10
19646;DHT22;9971;52.446;13.452;2024-01-10T08:29:03;19.10;95.40
19646;DHT22;9971;52.446;13.452;2024-01-10T08:34:05;19.10;95.80
19646;DHT22;9971;52.446;13.452;2024-01-10T08:39:08;19.00;95.80
19646;DHT22;9971;52.446;13.452;2024-01-10T08:44:10;19.10;95.80
19646;DHT22;9971;52.446;13.452;2024-01-10T08:49:13;19.00;95.50
19646;DHT22;9971;52.446;13.452;2024-01-10T08:54:15;19.10;95.00
19646;DHT22;9971;52.446;13.452;2024-01-10T08:59:18;19.10;94.40
19646;DHT22;9971;52.446;13.452;2024-01-10T09:04:20;19.10;94.70
19646;DHT22;9971;52.446;13.452;2024-01-10T09:09:23;19.10;94.80
19646;DHT22;9971;52.446;13.452;2024-01-10T09:14:25;19.10;93.40
19646;DHT22;9971;52.446;13.452;2024-01-10T09:19:28;19.10;91.80
19646;DHT22;9971;52.446;13.452;2024-01-10T09:24:29;19.10;89.80
19646;DHT22;9971;52.446;13.452;2024-01-10T09:29:32;19.10;90.90
19646;DHT22;9971;52.446;13.452;2024-01-10T09:34:34;19.20;91.50
19646;DHT22;9971;52.446;13.452;2024-01-10T09:39:37;19.20;91.00
19646;DHT22;9971;52.446;13.452;2024-01-10T09:44:40;19.20;91.60
19646;DHT22;9971;52.446;13.452;2024-01-10T09:49:42;19.20;92.10
19646;DHT22;9971;52.446;13.452;2024-01-10T09:54:44;19.20;93.40
19646;DHT22;9971;52.446;13.452;2024-01-10T09:59:47;19.20;93.30
19646;DHT22;9971;52.446;13.452;2024-01-10T10:04:53;19.20;93.80
19646;DHT22;9971;52.446;13.452;2024-01-10T10:09:50;19.30;93.50
19646;DHT22;9971;52.446;13.452;2024-01-10T10:14:52;19.30;93.80
19646;DHT22;9971;52.446;13.452;2024-01-10T10:20:02;19.30;92.60
19646;DHT22;9971;52.446;13.452;2024-01-10T10:24:57;19.30;92.70
19646;DHT22;9971;52.446;13.452;2024-01-10T10:29:59;19.20;93.60
19646;DHT22;9971;52.446;13.452;2024-01-10T10:35:01;19.30;93.70
19646;DHT22;9971;52.446;13.452;2024-01-10T10:40:04;19.30;93.10
19646;DHT22;9971;52.446;13.452;2024-01-10T10:45:07;19.30;91.80
19646;DHT22;9971;52.446;13.452;2024-01-10T10:50:10;19.30;89.70
19646;DHT22;9971;52.446;13.452;2024-01-10T10:55:11;19.30;91.20
19646;DHT22;9971;52.446;13.452;2024-01-10T11:00:14;19.30;88.80
19646;DHT22;9971;52.446;13.452;2024-01-10T11:05:17;19.30;90.90
19646;DHT22;9971;52.446;13.452;2024-01-10T11:10:21;19.30;91.10
19646;DHT22;9971;52.446;13.452;2024-01-10T11:25:52;19.40;92.90
19646;DHT22;9971;52.446;13.452;2024-01-10T11:30:55;19.40;92.10
19646;DHT22;9971;52.446;13.452;2024-01-10T11:36:06;19.40;92.80
19646;DHT22;9971;52.446;13.452;2024-01-10T11:41:10;19.40;93.20
19646;DHT22;9971;52.446;13.452;2024-01-10T11:46:10;19.40;92.70
19646;DHT22;9971;52.446;13.452;2024-01-10T11:51:12;19.40;92.70
19646;DHT22;9971;52.446;13.452;2024-01-10T11:56:14;19.40;92.80
19646;DHT22;9971;52.446;13.452;2024-01-10T12:01:16;19.40;91.30
19646;DHT22;9971;52.446;13.452;2024-01-10T12:06:19;19.40;92.20
19646;DHT22;9971;52.446;13.452;2024-01-10T12:11:20;19.40;91.60
19646;DHT22;9971;52.446;13.452;2024-01-10T12:16:22;19.40;91.20
19646;DHT22;9971;52.446;13.452;2024-01-10T12:21:25;19.40;91.60
19646;DHT22;9971;52.446;13.452;2024-01-10T12:26:27;19.40;91.30
19646;DHT22;9971;52.446;13.452;2024-01-10T12:31:30;19.40;92.70
19646;DHT22;9971;52.446;13.452;2024-01-10T12:36:32;19.50;91.70
19646;DHT22;9971;52.446;13.452;2024-01-10T12:41:34;19.50;91.40
19646;DHT22;9971;52.446;13.452;2024-01-10T12:46:47;19.50;90.30
19646;DHT22;9971;52.446;13.452;2024-01-10T12:51:39;19.50;85.40
19646;DHT22;9971;52.446;13.452;2024-01-10T12:56:41;19.40;85.50
19646;DHT22;9971;52.446;13.452;2024-01-10T13:01:44;19.50;85.60
19646;DHT22;9971;52.446;13.452;2024-01-10T13:06:46;19.50;86.20
19646;DHT22;9971;52.446;13.452;2024-01-10T13:11:49;19.50;87.20
19646;DHT22;9971;52.446;13.452;2024-01-10T13:16:51;19.50;89.80
19646;DHT22;9971;52.446;13.452;2024-01-10T13:21:54;19.50;90.40
19646;DHT22;9971;52.446;13.452;2024-01-10T13:26:56;19.50;89.50
19646;DHT22;9971;52.446;13.452;2024-01-10T13:31:59;19.50;90.00
19646;DHT22;9971;52.446;13.452;2024-01-10T13:37:01;19.50;87.40
19646;DHT22;9971;52.446;13.452;2024-01-10T13:42:04;19.50;85.20
19646;DHT22;9971;52.446;13.452;2024-01-10T13:47:06;19.50;81.10
19646;DHT22;9971;52.446;13.452;2024-01-10T13:52:08;19.50;78.50
19646;DHT22;9971;52.446;13.452;2024-01-10T13:57:11;19.50;75.00
19646;DHT22;9971;52.446;13.452;2024-01-10T14:02:13;19.50;74.00
19646;DHT22;9971;52.446;13.452;2024-01-10T14:07:15;19.50;68.70
19646;DHT22;9971;52.446;13.452;2024-01-10T14:12:18;19.50;69.30
19646;DHT22;9971;52.446;13.452;2024-01-10T14:17:20;19.50;65.10
19646;DHT22;9971;52.446;13.452;2024-01-10T14:22:22;19.60;70.50
19646;DHT22;9971;52.446;13.452;2024-01-10T14:27:25;19.60;69.70
19646;DHT22;9971;52.446;13.452;2024-01-10T14:32:27;19.60;65.80
19646;DHT22;9971;52.446;13.452;2024-01-10T14:37:30;19.60;60.20
19646;DHT22;9971;52.446;13.452;2024-01-10T14:42:32;19.60;55.30
19646;DHT22;9971;52.446;13.452;2024-01-10T14:47:33;19.50;51.80
19646;DHT22;9971;52.446;13.452;2024-01-10T14:52:36;19.50;48.60
19646;DHT22;9971;52.446;13.452;2024-01-10T14:57:38;19.50;46.40
19646;DHT22;9971;52.446;13.452;2024-01-10T15:02:40;19.50;50.30
19646;DHT22;9971;52.446;13.452;2024-01-10T15:07:43;19.50;51.10
19646;DHT22;9971;52.446;13.452;2024-01-10T15:12:45;19.60;51.70
19646;DHT22;9971;52.446;13.452;2024-01-10T15:17:48;19.60;51.90
19646;DHT22;9971;52.446;13.452;2024-01-10T15:22:50;19.60;52.20
19646;DHT22;9971;52.446;13.452;2024-01-10T15:27:52;19.60;52.90
19646;DHT22;9971;52.446;13.452;2024-01-10T15:32:55;19.60;52.50
19646;DHT22;9971;52.446;13.452;2024-01-10T15:37:57;19.60;52.40
19646;DHT22;9971;52.446;13.452;2024-01-10T15:43:00;19.60;51.00
19646;DHT22;9971;52.446;13.452;2024-01-10T15:48:02;19.50;50.30
19646;DHT22;9971;52.446;13.452;2024-01-10T15:53:05;19.50;50.50
19646;DHT22;9971;52.446;13.452;2024-01-10T15:58:07;19.50;49.40
19646;DHT22;9971;52.446;13.452;2024-01-10T16:03:09;19.50;48.00
19646;DHT22;9971;52.446;13.452;2024-01-10T16:08:12;19.50;46.20
19646;DHT22;9971;52.446;13.452;2024-01-10T16:13:14;19.50;44.60
19646;DHT22;9971;52.446;13.452;2024-01-10T16:18:17;19.50;44.10
19646;DHT22;9971;52.446;13.452;2024-01-10T16:23:19;19.50;44.90
19646;DHT22;9971;52.446;13.452;2024-01-10T16:28:21;19.50;44.20
19646;DHT22;9971;52.446;13.452;2024-01-10T16:33:24;19.50;45.30
19646;DHT22;9971;52.446;13.452;2024-01-10T16:38:26;19.40;45.70
19646;DHT22;9971;52.446;13.452;2024-01-10T16:43:29;19.40;47.80
19646;DHT22;9971;52.446;13.452;2024-01-10T16:48:31;19.50;48.30
19646;DHT22;9971;52.446;13.452;2024-01-10T16:53:34;19.50;50.80
19646;DHT22;9971;52.446;13.452;2024-01-10T16:58:36;19.50;51.50
19646;DHT22;9971;52.446;13.452;2024-01-10T17:03:39;19.50;51.30
19646;DHT22;9971;52.446;13.452;2024-01-10T17:08:42;19.50;51.70
19646;DHT22;9971;52.446;13.452;2024-01-10T17:13:44;19.50;51.40
19646;DHT22;9971;52.446;13.452;2024-01-10T17:18:46;19.50;49.50
19646;DHT22;9971;52.446;13.452;2024-01-10T17:23:49;19.50;47.60
19646;DHT22;9971;52.446;13.452;2024-01-10T17:28:52;19.40;47.00
19646;DHT22;9971;52.446;13.452;2024-01-10T17:33:54;19.50;46.90
19646;DHT22;9971;52.446;13.452;2024-01-10T17:38:57;19.50;47.20
19646;DHT22;9971;52.446;13.452;2024-01-10T17:43:59;19.40;47.70
19646;DHT22;9971;52.446;13.452;2024-01-10T17:49:01;19.40;49.30
19646;DHT22;9971;52.446;13.452;2024-01-10T17:54:04;19.50;53.20
19646;DHT22;9971;52.446;13.452;2024-01-10T17:59:06;19.50;53.30
19646;DHT22;9971;52.446;13.452;2024-01-10T18:04:09;19.50;52.00
19646;DHT22;9971;52.446;13.452;2024-01-10T18:09:12;19.50;53.00
19646;DHT22;9971;52.446;13.452;2024-01-10T18:14:13;19.50;53.70
19646;DHT22;9971;52.446;13.452;2024-01-10T18:19:15;19.50;52.10
19646;DHT22;9971;52.446;13.452;2024-01-10T18:24:18;19.50;52.90
19646;DHT22;9971;52.446;13.452;2024-01-10T18:29:20;19.50;51.70
19646;DHT22;9971;52.446;13.452;2024-01-10T18:34:23;19.50;51.30
19646;DHT22;9971;52.446;13.452;2024-01-10T18:39:25;19.50;58.00
19646;DHT22;9971;52.446;13.452;2024-01-10T18:44:28;19.70;53.50
19646;DHT22;9971;52.446;13.452;2024-01-10T18:49:30;19.70;51.00
19646;DHT22;9971;52.446;13.452;2024-01-10T18:54:33;19.60;49.90
19646;DHT22;9971;52.446;13.452;2024-01-10T18:59:36;19.50;50.10
19646;DHT22;9971;52.446;13.452;2024-01-10T19:04:38;19.50;50.00
19646;DHT22;9971;52.446;13.452;2024-01-10T19:09:40;19.50;58.00
19646;DHT22;9971;52.446;13.452;2024-01-10T19:14:42;19.50;57.00
19646;DHT22;9971;52.446;13.452;2024-01-10T19:19:45;19.50;56.20
19646;DHT22;9971;52.446;13.452;2024-01-10T19:24:47;19.50;55.40
19646;DHT22;9971;52.446;13.452;2024-01-10T19:29:49;19.50;54.20
19646;DHT22;9971;52.446;13.452;2024-01-10T19:34:51;19.50;54.40
19646;DHT22;9971;52.446;13.452;2024-01-10T19:39:54;19.50;52.70
19646;DHT22;9971;52.446;13.452;2024-01-10T19:44:56;19.50;57.00
19646;DHT22;9971;52.446;13.452;2024-01-10T19:49:58;19.50;57.50
19646;DHT22;9971;52.446;13.452;2024-01-10T19:55:02;19.50;56.40
19646;DHT22;9971;52.446;13.452;2024-01-10T20:00:05;19.50;55.20
19646;DHT22;9971;52.446;13.452;2024-01-10T20:05:08;19.50;53.90
19646;DHT22;9971;52.446;13.452;2024-01-10T20:10:10;19.50;52.80
19646;DHT22;9971;52.446;13.452;2024-01-10T20:15:12;19.50;60.80
19646;DHT22;9971;52.446;13.452;2024-01-10T20:20:15;19.50;59.70
19646;DHT22;9971;52.446;13.452;2024-01-10T20:25:17;19.50;60.80
19646;DHT22;9971;52.446;13.452;2024-01-10T20:30:19;19.50;61.20
19646;DHT22;9971;52.446;13.452;2024-01-10T20:35:21;19.50;61.40
19646;DHT22;9971;52.446;13.452;2024-01-10T20:40:24;19.50;63.30
19646;DHT22;9971;52.446;13.452;2024-01-10T20:45:26;19.50;62.90
19646;DHT22;9971;52.446;13.452;2024-01-10T20:50:29;19.50;63.70
19646;DHT22;9971;52.446;13.452;2024-01-10T20:55:31;19.50;61.30
19646;DHT22;9971;52.446;13.452;2024-01-10T21:00:34;19.50;59.70
19646;DHT22;9971;52.446;13.452;2024-01-10T21:05:36;19.50;58.80
19646;DHT22;9971;52.446;13.452;2024-01-10T21:10:38;19.50;67.00
19646;DHT22;9971;52.446;13.452;2024-01-10T21:15:41;19.50;63.60
19646;DHT22;9971;52.446;13.452;2024-01-10T21:20:43;19.50;62.90
19646;DHT22;9971;52.446;13.452;2024-01-10T21:25:46;19.50;62.50
19646;DHT22;9971;52.446;13.452;2024-01-10T21:30:48;19.50;64.00
19646;DHT22;9971;52.446;13.452;2024-01-10T21:35:51;19.50;65.60
19646;DHT22;9971;52.446;13.452;2024-01-10T21:40:53;19.50;66.60
19646;DHT22;9971;52.446;13.452;2024-01-10T21:45:56;19.50;68.60
19646;DHT22;9971;52.446;13.452;2024-01-10T21:50:58;19.50;70.90
19646;DHT22;9971;52.446;13.452;2024-01-10T21:56:00;19.50;70.80
19646;DHT22;9971;52.446;13.452;2024-01-10T22:01:03;19.50;75.00
19646;DHT22;9971;52.446;13.452;2024-01-10T22:31:06;8.70;50.80
19646;DHT22;9971;52.446;13.452;2024-01-10T23:01:08;12.90;55.20
19646;DHT22;9971;52.446;13.452;2024-01-10T23:06:11;14.90;51.80
19646;DHT22;9971;52.446;13.452;2024-01-10T23:36:14;5.90;56.20
19646;DHT22;9971;52.446;13.452;2024-01-10T23:41:16;10.70;71.90
19646;DHT22;9971;52.446;13.452;2024-01-10T23:46:19;11.30;69.50
19646;DHT22;9971;52.446;13.452;2024-01-10T23:51:21;11.90;67.80
19646;DHT22;9971;52.446;13.452;2024-01-10T23:56:24;12.50;66.30
